createdAt,value
2022-10-18T00:01:04.979Z,99.90
2022-10-18T00:03:33.296Z,99.90
2022-10-18T00:06:01.284Z,99.90
2022-10-18T00:08:29.243Z,99.90
2022-10-18T00:10:56.754Z,99.90
2022-10-18T00:13:24.389Z,99.90
2022-10-18T00:15:57.187Z,99.90
2022-10-18T00:18:24.614Z,99.90
2022-10-18T00:21:15.723Z,99.90
2022-10-18T00:23:43.610Z,99.90
2022-10-18T00:26:22.805Z,99.90
2022-10-18T00:29:03.241Z,99.90
2022-10-18T00:31:33.597Z,99.90
2022-10-18T00:34:03.864Z,99.90
2022-10-18T00:36:34.326Z,99.90
2022-10-18T00:39:03.712Z,99.90
2022-10-18T00:41:32.659Z,99.90
2022-10-18T00:44:04.184Z,99.90
2022-10-18T00:46:37.408Z,99.90
2022-10-18T00:49:11.737Z,99.90
2022-10-18T00:51:48.083Z,99.90
2022-10-18T00:54:17.119Z,99.90
2022-10-18T00:56:45.524Z,99.90
2022-10-18T00:59:15.540Z,99.90
2022-10-18T01:01:43.345Z,99.90
2022-10-18T01:04:11.515Z,99.90
2022-10-18T01:06:49.715Z,99.90
2022-10-18T01:09:55.851Z,99.90
2022-10-18T01:12:26.022Z,99.90
2022-10-18T01:14:56.651Z,99.90
2022-10-18T01:17:33.299Z,99.90
2022-10-18T01:20:33.952Z,99.90
2022-10-18T01:23:26.000Z,99.90
2022-10-18T01:26:23.870Z,99.90
2022-10-18T01:29:22.960Z,99.90
2022-10-18T01:32:14.345Z,99.90
2022-10-18T01:34:46.121Z,99.90
2022-10-18T01:37:17.993Z,99.90
2022-10-18T01:39:48.056Z,99.90
2022-10-18T01:42:19.201Z,99.90
2022-10-18T01:44:48.401Z,99.90
2022-10-18T01:47:19.824Z,99.90
2022-10-18T01:49:47.282Z,99.90
2022-10-18T01:52:16.324Z,99.90
2022-10-18T01:54:50.546Z,99.90
2022-10-18T01:57:32.565Z,99.90
2022-10-18T02:00:13.892Z,99.90
2022-10-18T02:02:59.678Z,99.90
2022-10-18T02:05:50.204Z,99.90
2022-10-18T02:08:52.536Z,99.90
2022-10-18T02:11:20.626Z,99.90
2022-10-18T02:14:10.411Z,99.90
2022-10-18T02:17:08.899Z,99.90
2022-10-18T02:19:43.493Z,99.90
2022-10-18T02:22:15.933Z,99.90
2022-10-18T02:24:47.679Z,99.90
2022-10-18T02:27:15.419Z,99.90
2022-10-18T02:29:43.927Z,99.90
2022-10-18T02:32:38.582Z,99.90
2022-10-18T02:35:18.521Z,99.90
2022-10-18T02:37:47.981Z,99.90
2022-10-18T02:40:16.466Z,99.90
2022-10-18T02:42:53.935Z,99.90
2022-10-18T02:45:23.763Z,99.90
2022-10-18T02:47:51.470Z,99.90
2022-10-18T02:50:19.382Z,99.90
2022-10-18T02:52:46.540Z,99.90
2022-10-18T02:55:14.393Z,99.90
2022-10-18T02:57:41.562Z,99.90
2022-10-18T03:00:09.624Z,99.90
2022-10-18T03:02:36.800Z,99.90
2022-10-18T03:05:05.037Z,99.90
2022-10-18T03:07:32.463Z,99.90
2022-10-18T03:09:59.874Z,99.90
2022-10-18T03:12:27.103Z,99.90
2022-10-18T03:14:54.363Z,99.90
2022-10-18T03:17:21.552Z,99.90
2022-10-18T03:19:48.748Z,99.90
2022-10-18T03:22:15.943Z,99.90
2022-10-18T03:24:43.231Z,99.90
2022-10-18T03:27:10.397Z,99.90
2022-10-18T03:29:37.563Z,99.90
2022-10-18T03:32:04.869Z,99.90
2022-10-18T03:34:32.231Z,99.90
2022-10-18T03:37:03.405Z,99.90
2022-10-18T03:39:33.129Z,99.90
2022-10-18T03:42:00.375Z,99.90
2022-10-18T03:44:27.742Z,99.90
2022-10-18T03:46:55.019Z,99.90
2022-10-18T03:49:22.319Z,99.90
2022-10-18T03:51:49.513Z,99.90
2022-10-18T03:54:16.992Z,99.90
2022-10-18T03:56:44.225Z,99.90
2022-10-18T03:59:11.436Z,99.90
2022-10-18T04:01:38.690Z,99.90
2022-10-18T04:04:08.300Z,99.90
2022-10-18T04:06:35.564Z,99.90
2022-10-18T04:09:04.283Z,99.90
2022-10-18T04:11:34.223Z,99.90
2022-10-18T04:14:01.476Z,99.90
2022-10-18T04:16:28.806Z,99.90
2022-10-18T04:18:56.005Z,99.90
2022-10-18T04:21:23.428Z,99.90
2022-10-18T04:23:51.485Z,99.90
2022-10-18T04:26:18.816Z,99.90
2022-10-18T04:28:46.139Z,99.90
2022-10-18T04:31:13.549Z,99.90
2022-10-18T04:33:40.865Z,99.90
2022-10-18T04:36:08.218Z,99.90
2022-10-18T04:38:35.739Z,99.90
2022-10-18T04:41:03.485Z,99.90
2022-10-18T04:43:30.903Z,99.90
2022-10-18T04:45:58.545Z,99.90
2022-10-18T04:48:26.524Z,99.90
2022-10-18T04:50:53.966Z,99.90
2022-10-18T04:53:21.281Z,99.90
2022-10-18T04:55:49.608Z,99.90
2022-10-18T04:58:17.829Z,99.90
2022-10-18T05:00:46.078Z,99.90
2022-10-18T05:03:13.994Z,99.90
2022-10-18T05:06:00.879Z,99.90
2022-10-18T05:08:33.014Z,99.90
2022-10-18T05:11:02.824Z,99.90
2022-10-18T05:13:31.130Z,99.90
2022-10-18T05:16:00.376Z,99.90
2022-10-18T05:18:27.749Z,99.90
2022-10-18T05:20:55.034Z,99.90
2022-10-18T05:23:22.498Z,99.90
2022-10-18T05:25:49.956Z,99.90
2022-10-18T05:31:07.186Z,99.90
2022-10-18T05:33:35.054Z,99.90
2022-10-18T05:36:02.462Z,99.90
2022-10-18T05:38:32.480Z,99.90
2022-10-18T05:41:03.657Z,99.90
2022-10-18T05:43:31.141Z,99.90
2022-10-18T05:45:58.463Z,99.90
2022-10-18T05:48:28.802Z,99.90
2022-10-18T05:50:59.924Z,99.90
2022-10-18T05:53:42.939Z,99.90
2022-10-18T05:56:12.112Z,99.90
2022-10-18T05:58:40.179Z,99.90
2022-10-18T06:01:08.641Z,99.90
2022-10-18T06:03:36.262Z,99.90
2022-10-18T06:06:10.290Z,99.90
2022-10-18T06:08:38.546Z,99.90
2022-10-18T06:11:14.590Z,99.90
2022-10-18T06:13:46.891Z,99.90
2022-10-18T06:16:16.778Z,99.90
2022-10-18T06:18:50.641Z,99.90
2022-10-18T06:21:19.261Z,99.90
2022-10-18T06:23:50.329Z,99.90
2022-10-18T06:26:17.817Z,99.90
2022-10-18T06:28:47.397Z,99.90
2022-10-18T06:31:16.214Z,99.90
2022-10-18T06:33:43.648Z,99.90
2022-10-18T06:36:14.127Z,99.90
2022-10-18T06:38:41.829Z,99.90
2022-10-18T06:41:09.593Z,99.90
2022-10-18T06:43:37.377Z,99.90
2022-10-18T06:46:07.043Z,99.90
2022-10-18T06:48:39.273Z,99.90
2022-10-18T06:51:08.089Z,99.90
2022-10-18T06:53:43.941Z,99.90
2022-10-18T06:56:21.569Z,99.90
2022-10-18T06:58:49.091Z,99.90
2022-10-18T07:01:17.906Z,99.90
2022-10-18T07:03:47.454Z,99.90
2022-10-18T07:06:17.003Z,99.90
2022-10-18T07:08:44.782Z,99.90
2022-10-18T07:11:17.941Z,99.90
2022-10-18T07:13:45.493Z,99.90
2022-10-18T07:16:18.725Z,99.90
2022-10-18T07:18:49.969Z,99.90
2022-10-18T07:21:19.796Z,99.90
2022-10-18T07:23:47.979Z,99.90
2022-10-18T07:26:27.390Z,99.90
2022-10-18T07:28:58.057Z,99.90
2022-10-18T07:31:25.674Z,99.90
2022-10-18T07:33:53.565Z,99.90
2022-10-18T07:36:22.260Z,99.90
2022-10-18T07:38:50.253Z,99.90
2022-10-18T07:41:17.639Z,99.90
2022-10-18T07:43:46.973Z,99.90
2022-10-18T07:46:15.564Z,99.90
2022-10-18T07:48:43.242Z,99.90
2022-10-18T07:51:11.547Z,99.90
2022-10-18T07:53:38.885Z,99.90
2022-10-18T07:56:16.256Z,99.90
2022-10-18T07:58:45.678Z,99.90
2022-10-18T08:01:14.489Z,99.90
2022-10-18T08:03:42.838Z,99.90
2022-10-18T08:06:12.504Z,99.90
2022-10-18T08:08:41.058Z,99.90
2022-10-18T08:11:15.111Z,99.90
2022-10-18T08:13:43.629Z,99.90
2022-10-18T08:16:13.762Z,99.90
2022-10-18T08:18:41.326Z,99.90
2022-10-18T08:21:10.422Z,99.90
2022-10-18T08:23:38.339Z,99.90
2022-10-18T08:26:11.886Z,99.90
2022-10-18T08:28:40.502Z,99.90
2022-10-18T08:31:17.445Z,99.90
2022-10-18T08:33:45.635Z,99.90
2022-10-18T08:36:15.161Z,99.90
2022-10-18T08:38:44.238Z,99.90
2022-10-18T08:41:42.261Z,99.90
2022-10-18T08:44:28.873Z,99.90
2022-10-18T08:47:04.485Z,99.90
2022-10-18T08:49:38.334Z,99.90
2022-10-18T08:52:16.462Z,99.90
2022-10-18T08:54:55.821Z,99.90
2022-10-18T08:57:26.063Z,99.90
2022-10-18T08:59:53.514Z,99.90
2022-10-18T09:02:33.553Z,99.90
2022-10-18T09:05:31.203Z,99.90
2022-10-18T09:08:23.291Z,99.90
2022-10-18T09:11:00.338Z,99.90
2022-10-18T09:13:30.721Z,99.90
2022-10-18T09:16:15.379Z,99.90
2022-10-18T09:18:42.782Z,99.90
2022-10-18T09:21:39.673Z,99.90
2022-10-18T09:24:18.659Z,99.90
2022-10-18T09:26:49.493Z,99.90
2022-10-18T09:29:36.534Z,99.90
2022-10-18T09:32:32.456Z,99.90
2022-10-18T09:35:17.967Z,99.90
2022-10-18T09:37:45.788Z,99.90
2022-10-18T09:40:23.336Z,99.90
2022-10-18T09:42:57.017Z,99.90
2022-10-18T09:45:45.026Z,99.90
2022-10-18T09:48:16.386Z,99.90
2022-10-18T09:51:03.812Z,99.90
2022-10-18T09:53:40.019Z,99.90
2022-10-18T09:56:31.259Z,99.90
2022-10-18T09:58:58.788Z,99.90
2022-10-18T10:01:31.060Z,99.90
2022-10-18T10:03:58.480Z,99.90
2022-10-18T10:06:29.015Z,99.90
2022-10-18T10:09:05.640Z,99.90
2022-10-18T10:11:40.388Z,99.90
2022-10-18T10:16:55.544Z,99.90
2022-10-18T10:19:33.726Z,99.90
2022-10-18T10:22:10.906Z,99.90
2022-10-18T10:24:50.122Z,99.90
2022-10-18T10:27:34.046Z,99.90
2022-10-18T10:30:21.192Z,99.90
2022-10-18T10:32:53.123Z,99.90
2022-10-18T10:35:52.952Z,99.90
2022-10-18T10:38:27.552Z,99.90
2022-10-18T10:40:56.324Z,99.90
2022-10-18T10:43:39.927Z,99.90
2022-10-18T10:46:13.268Z,98.30
2022-10-18T10:49:21.055Z,97.80
2022-10-18T10:52:02.462Z,97.10
2022-10-18T10:54:50.407Z,96.50
2022-10-18T10:57:26.175Z,95.10
2022-10-18T10:59:59.934Z,94.10
2022-10-18T11:02:37.825Z,92.30
2022-10-18T11:05:24.171Z,91.70
2022-10-18T11:07:55.640Z,91.20
2022-10-18T11:10:29.616Z,89.50
2022-10-18T11:13:29.894Z,89.50
2022-10-18T11:16:09.116Z,90.80
2022-10-18T11:18:38.276Z,88.20
2022-10-18T11:21:16.849Z,87.90
2022-10-18T11:23:46.810Z,89.70
2022-10-18T11:26:42.843Z,86.80
2022-10-18T11:29:22.705Z,87.70
2022-10-18T11:31:59.941Z,87.90
2022-10-18T11:34:42.383Z,90.00
2022-10-18T11:37:39.389Z,91.40
2022-10-18T11:40:30.185Z,91.90
2022-10-18T11:43:00.377Z,93.20
2022-10-18T11:45:48.320Z,93.00
2022-10-18T11:48:34.584Z,93.60
2022-10-18T11:52:06.843Z,93.50
2022-10-18T11:54:58.849Z,94.50
2022-10-18T11:58:11.279Z,95.70
2022-10-18T12:00:46.039Z,96.40
2022-10-18T12:03:50.122Z,97.30
2022-10-18T12:06:25.169Z,98.30
2022-10-18T12:09:01.900Z,99.60
2022-10-18T12:11:47.457Z,99.90
2022-10-18T12:14:38.609Z,99.90
2022-10-18T12:17:40.660Z,99.90
2022-10-18T12:20:27.610Z,99.90
2022-10-18T12:23:16.406Z,99.90
2022-10-18T12:25:50.063Z,99.90
2022-10-18T12:28:25.944Z,99.90
2022-10-18T12:31:20.925Z,99.90
2022-10-18T12:33:55.729Z,99.90
2022-10-18T12:36:35.910Z,99.90
2022-10-18T12:39:09.216Z,99.90
2022-10-18T12:41:37.208Z,99.90
2022-10-18T12:44:34.490Z,99.90
2022-10-18T12:47:04.844Z,99.90
2022-10-18T12:49:40.156Z,99.90
2022-10-18T12:52:29.026Z,99.90
2022-10-18T12:55:16.792Z,99.60
2022-10-18T12:57:54.224Z,99.60
2022-10-18T13:00:33.253Z,99.90
2022-10-18T13:03:09.399Z,99.90
2022-10-18T13:05:53.515Z,99.90
2022-10-18T13:08:30.553Z,99.90
2022-10-18T13:11:29.316Z,99.90
2022-10-18T13:14:21.377Z,99.90
2022-10-18T13:17:12.413Z,99.90
2022-10-18T13:20:24.965Z,99.90
2022-10-18T13:23:30.083Z,99.90
2022-10-18T13:26:17.928Z,99.90
2022-10-18T13:29:19.165Z,99.90
2022-10-18T13:32:01.696Z,99.90
2022-10-18T13:34:35.087Z,99.90
2022-10-18T13:37:04.292Z,99.90
2022-10-18T13:39:33.333Z,99.90
2022-10-18T13:42:00.881Z,99.90
2022-10-18T13:44:40.402Z,99.90
2022-10-18T13:47:08.695Z,99.90
2022-10-18T13:50:14.298Z,99.90
2022-10-18T13:53:20.913Z,99.90
2022-10-18T13:55:57.829Z,99.90
2022-10-18T13:58:31.304Z,99.90
2022-10-18T14:01:32.025Z,99.90
2022-10-18T14:04:27.363Z,99.90
2022-10-18T14:07:02.387Z,99.90
2022-10-18T14:09:45.182Z,99.90
2022-10-18T14:12:40.385Z,99.90
2022-10-18T14:15:23.382Z,99.90
2022-10-18T14:17:59.836Z,99.90
2022-10-18T14:20:55.167Z,99.90
2022-10-18T14:23:33.121Z,99.90
2022-10-18T14:26:08.254Z,99.90
2022-10-18T14:28:55.210Z,99.90
2022-10-18T14:31:23.516Z,99.90
2022-10-18T14:33:57.967Z,99.90
2022-10-18T14:36:41.032Z,99.90
2022-10-18T14:39:26.767Z,99.90
2022-10-18T14:41:57.283Z,99.90
2022-10-18T14:44:32.333Z,99.90
2022-10-18T14:47:31.452Z,99.90
2022-10-18T14:49:59.187Z,99.90
2022-10-18T14:52:35.444Z,99.90
2022-10-18T14:55:03.873Z,99.90
2022-10-18T14:57:36.926Z,99.90
2022-10-18T15:00:39.372Z,99.90
2022-10-18T15:03:11.172Z,99.90
2022-10-18T15:05:52.435Z,99.90
2022-10-18T15:08:20.725Z,99.90
2022-10-18T15:10:48.750Z,99.90
2022-10-18T15:13:19.875Z,99.90
2022-10-18T15:15:47.660Z,99.90
2022-10-18T15:18:24.339Z,99.90
2022-10-18T15:21:30.855Z,99.90
2022-10-18T15:24:27.761Z,99.90
2022-10-18T15:26:59.866Z,99.90
2022-10-18T15:29:32.844Z,99.90
2022-10-18T15:32:08.308Z,99.90
2022-10-18T15:34:36.092Z,99.90
2022-10-18T15:37:30.340Z,99.90
2022-10-18T15:40:22.919Z,99.90
2022-10-18T15:42:52.414Z,99.90
2022-10-18T15:45:25.430Z,99.90
2022-10-18T15:48:02.083Z,99.90
2022-10-18T15:50:48.966Z,99.90
2022-10-18T15:53:29.359Z,99.90
2022-10-18T15:56:05.247Z,99.90
2022-10-18T15:58:49.102Z,99.90
2022-10-18T16:01:18.107Z,99.90
2022-10-18T16:03:47.339Z,99.90
2022-10-18T16:06:18.170Z,99.90
2022-10-18T16:08:48.973Z,99.90
2022-10-18T16:11:18.262Z,99.90
2022-10-18T16:13:45.984Z,99.90
2022-10-18T16:16:20.541Z,99.90
2022-10-18T16:18:48.088Z,99.90
2022-10-18T16:21:33.077Z,99.90
2022-10-18T16:24:01.162Z,99.90
2022-10-18T16:26:28.780Z,99.90
2022-10-18T16:28:57.448Z,99.90
2022-10-18T16:31:30.827Z,99.90
2022-10-18T16:33:59.046Z,99.90
2022-10-18T16:36:31.652Z,99.90
2022-10-18T16:39:01.640Z,99.90
2022-10-18T16:41:29.344Z,99.90
2022-10-18T16:43:56.619Z,99.90
2022-10-18T16:46:27.656Z,99.90
2022-10-18T16:48:55.951Z,99.90
2022-10-18T16:51:23.724Z,99.90
2022-10-18T16:53:53.475Z,99.90
2022-10-18T16:56:28.201Z,99.90
2022-10-18T16:58:55.558Z,99.90
2022-10-18T17:01:23.858Z,99.90
2022-10-18T17:03:52.417Z,99.90
2022-10-18T17:06:27.103Z,99.90
2022-10-18T17:08:56.247Z,99.90
2022-10-18T17:11:27.069Z,99.90
2022-10-18T17:13:55.254Z,99.90
2022-10-18T17:16:24.522Z,99.90
2022-10-18T17:18:51.974Z,99.90
2022-10-18T17:21:19.817Z,99.90
2022-10-18T17:23:47.400Z,99.90
2022-10-18T17:26:34.292Z,99.90
2022-10-18T17:29:05.988Z,99.90
2022-10-18T17:31:37.034Z,99.90
2022-10-18T17:34:04.765Z,99.90
2022-10-18T17:36:33.376Z,99.90
2022-10-18T17:39:01.688Z,99.90
2022-10-18T17:41:30.119Z,99.90
2022-10-18T17:43:57.554Z,99.90
2022-10-18T17:46:24.905Z,99.90
2022-10-18T17:48:53.292Z,99.90
2022-10-18T17:51:20.648Z,99.90
2022-10-18T17:53:48.078Z,99.90
2022-10-18T17:56:16.211Z,99.90
2022-10-18T17:58:43.772Z,99.90
2022-10-18T18:01:18.023Z,99.90
2022-10-18T18:03:47.909Z,99.90
2022-10-18T18:06:33.974Z,99.90
2022-10-18T18:09:08.440Z,99.90
2022-10-18T18:11:39.890Z,99.90
2022-10-18T18:14:09.172Z,99.90
2022-10-18T18:16:41.849Z,99.90
2022-10-18T18:19:10.295Z,99.90
2022-10-18T18:21:38.570Z,99.90
2022-10-18T18:24:06.373Z,99.90
2022-10-18T18:26:34.897Z,99.90
2022-10-18T18:29:05.141Z,99.90
2022-10-18T18:31:37.753Z,99.90
2022-10-18T18:34:10.952Z,99.90
2022-10-18T18:36:39.032Z,99.90
2022-10-18T18:39:07.408Z,99.90
2022-10-18T18:41:35.334Z,99.90
2022-10-18T18:44:04.638Z,99.90
2022-10-18T18:46:36.947Z,99.90
2022-10-18T18:49:05.950Z,99.90
2022-10-18T18:51:34.059Z,99.90
2022-10-18T18:54:01.472Z,99.90
2022-10-18T18:56:31.999Z,99.90
2022-10-18T18:59:00.449Z,99.90
2022-10-18T19:01:31.211Z,99.90
2022-10-18T19:03:59.932Z,99.90
2022-10-18T19:06:30.349Z,99.90
2022-10-18T19:09:03.921Z,99.90
2022-10-18T19:11:35.217Z,99.90
2022-10-18T19:14:03.305Z,99.90
2022-10-18T19:16:37.410Z,99.90
2022-10-18T19:19:16.601Z,99.90
2022-10-18T19:21:46.585Z,99.90
2022-10-18T19:24:14.310Z,99.90
2022-10-18T19:26:52.040Z,99.90
2022-10-18T19:29:27.981Z,99.90
2022-10-18T19:31:58.017Z,99.90
2022-10-18T19:34:27.329Z,99.90
2022-10-18T19:36:55.226Z,99.90
2022-10-18T19:39:23.800Z,99.90
2022-10-18T19:41:53.246Z,99.90
2022-10-18T19:44:21.160Z,99.90
2022-10-18T19:46:48.844Z,99.90
2022-10-18T19:49:16.769Z,99.90
2022-10-18T19:51:44.049Z,99.90
2022-10-18T19:54:12.477Z,99.90
2022-10-18T19:56:41.823Z,99.90
2022-10-18T19:59:10.091Z,99.90
2022-10-18T20:01:38.018Z,99.90
2022-10-18T20:04:08.236Z,99.90
2022-10-18T20:06:39.063Z,99.90
2022-10-18T20:09:08.140Z,99.90
2022-10-18T20:11:35.647Z,99.90
2022-10-18T20:14:05.508Z,99.90
2022-10-18T20:16:33.937Z,99.90
2022-10-18T20:19:03.955Z,99.90
2022-10-18T20:21:36.085Z,99.90
2022-10-18T20:24:05.639Z,99.90
2022-10-18T20:26:34.625Z,99.90
2022-10-18T20:29:02.114Z,99.90
2022-10-18T20:31:32.038Z,99.90
2022-10-18T20:34:02.270Z,99.90
2022-10-18T20:36:32.021Z,99.90
2022-10-18T20:39:00.184Z,99.90
2022-10-18T20:41:30.186Z,99.90
2022-10-18T20:44:02.925Z,99.90
2022-10-18T20:46:32.091Z,99.90
2022-10-18T20:49:00.042Z,99.90
2022-10-18T20:51:28.010Z,99.90
2022-10-18T20:53:55.543Z,99.90
2022-10-18T20:56:27.235Z,99.90
2022-10-18T20:58:56.962Z,99.90
2022-10-18T21:01:27.282Z,99.90
2022-10-18T21:03:58.068Z,99.90
2022-10-18T21:06:30.572Z,99.90
2022-10-18T21:09:03.358Z,99.90
2022-10-18T21:11:31.896Z,99.90
2022-10-18T21:14:02.745Z,99.90
2022-10-18T21:16:31.638Z,99.90
2022-10-18T21:19:03.617Z,99.90
2022-10-18T21:21:31.102Z,99.90
2022-10-18T21:24:01.274Z,99.90
2022-10-18T21:26:31.429Z,99.90
2022-10-18T21:28:59.526Z,99.90
2022-10-18T21:31:29.839Z,99.90
2022-10-18T21:34:00.004Z,99.90
2022-10-18T21:36:33.939Z,99.90
2022-10-18T21:39:02.733Z,99.90
2022-10-18T21:41:31.860Z,99.90
2022-10-18T21:43:59.212Z,99.90
2022-10-18T21:46:27.243Z,99.90
2022-10-18T21:48:59.274Z,99.90
2022-10-18T21:51:28.441Z,99.90
2022-10-18T21:53:57.753Z,99.90
2022-10-18T21:56:33.637Z,99.90
2022-10-18T21:59:01.939Z,99.90
2022-10-18T22:01:33.836Z,99.90
2022-10-18T22:04:03.214Z,99.90
2022-10-18T22:09:08.478Z,99.90
2022-10-18T22:11:39.783Z,99.90
2022-10-18T22:14:07.227Z,99.90
2022-10-18T22:16:36.712Z,99.90
2022-10-18T22:19:05.645Z,99.90
2022-10-18T22:21:36.257Z,99.90
2022-10-18T22:24:08.913Z,99.90
2022-10-18T22:26:38.344Z,99.90
2022-10-18T22:29:08.438Z,99.90
2022-10-18T22:31:39.173Z,99.90
2022-10-18T22:34:09.141Z,99.90
2022-10-18T22:36:36.553Z,99.90
2022-10-18T22:39:05.600Z,99.90
2022-10-18T22:41:34.223Z,99.90
2022-10-18T22:44:03.591Z,99.90
2022-10-18T22:46:32.155Z,99.90
2022-10-18T22:48:59.829Z,99.90
2022-10-18T22:51:27.544Z,99.90
2022-10-18T22:53:54.914Z,99.90
2022-10-18T22:56:23.683Z,99.90
2022-10-18T22:58:51.095Z,99.90
2022-10-18T23:01:21.608Z,99.90
2022-10-18T23:03:57.526Z,99.90
2022-10-18T23:06:42.689Z,99.90
2022-10-18T23:09:11.718Z,99.90
2022-10-18T23:11:39.052Z,99.90
2022-10-18T23:14:07.202Z,99.90
2022-10-18T23:16:34.607Z,99.90
2022-10-18T23:19:02.170Z,99.90
2022-10-18T23:21:29.726Z,99.90
2022-10-18T23:23:58.043Z,99.90
2022-10-18T23:26:27.672Z,99.90
2022-10-18T23:28:57.995Z,99.90
2022-10-18T23:31:28.555Z,99.90
2022-10-18T23:33:57.716Z,99.90
2022-10-18T23:36:25.711Z,99.90
2022-10-18T23:38:53.704Z,99.90
2022-10-18T23:41:21.051Z,99.90
2022-10-18T23:43:48.556Z,99.90
2022-10-18T23:46:17.051Z,99.90
2022-10-18T23:48:47.015Z,99.90
2022-10-18T23:51:15.896Z,99.90
2022-10-18T23:53:43.680Z,99.90
2022-10-18T23:56:15.600Z,99.90
2022-10-18T23:58:43.711Z,99.90
